Map

Track Data

SID SEASON NUMBER BASIN SUBBASIN NAME ISO_TIME NATURE LAT LON WMO_WIND WMO_PRES WMO_AGENCY TRACK_TYPE DIST2LAND LANDFALL IFLAG USA_AGENCY USA_ATCF_ID USA_LAT USA_LON USA_RECORD USA_STATUS USA_WIND USA_PRES USA_SSHS USA_R34_NE USA_R34_SE USA_R34_SW USA_R34_NW USA_R50_NE USA_R50_SE USA_R50_SW USA_R50_NW USA_R64_NE USA_R64_SE USA_R64_SW USA_R64_NW USA_POCI USA_ROCI USA_RMW USA_EYE TOKYO_LAT TOKYO_LON TOKYO_GRADE TOKYO_WIND TOKYO_PRES TOKYO_R50_DIR TOKYO_R50_LONG TOKYO_R50_SHORT TOKYO_R30_DIR TOKYO_R30_LONG TOKYO_R30_SHORT TOKYO_LAND CMA_LAT CMA_LON CMA_CAT CMA_WIND CMA_PRES HKO_LAT HKO_LON HKO_CAT HKO_WIND HKO_PRES NEWDELHI_LAT NEWDELHI_LON NEWDELHI_GRADE NEWDELHI_WIND NEWDELHI_PRES NEWDELHI_CI NEWDELHI_DP NEWDELHI_POCI REUNION_LAT REUNION_LON REUNION_TYPE REUNION_WIND REUNION_PRES REUNION_TNUM REUNION_CI REUNION_RMW REUNION_R34_NE REUNION_R34_SE REUNION_R34_SW REUNION_R34_NW REUNION_R50_NE REUNION_R50_SE REUNION_R50_SW REUNION_R50_NW REUNION_R64_NE REUNION_R64_SE REUNION_R64_SW REUNION_R64_NW BOM_LAT BOM_LON BOM_TYPE BOM_WIND BOM_PRES BOM_TNUM BOM_CI BOM_RMW BOM_R34_NE BOM_R34_SE BOM_R34_SW BOM_R34_NW BOM_R50_NE BOM_R50_SE BOM_R50_SW BOM_R50_NW BOM_R64_NE BOM_R64_SE BOM_R64_SW BOM_R64_NW BOM_ROCI BOM_POCI BOM_EYE BOM_POS_METHOD BOM_PRES_METHOD NADI_LAT NADI_LON NADI_CAT NADI_WIND NADI_PRES WELLINGTON_LAT WELLINGTON_LON WELLINGTON_WIND WELLINGTON_PRES DS824_LAT DS824_LON DS824_STAGE DS824_WIND DS824_PRES TD9636_LAT TD9636_LON TD9636_STAGE TD9636_WIND TD9636_PRES TD9635_LAT TD9635_LON TD9635_WIND TD9635_PRES TD9635_ROCI NEUMANN_LAT NEUMANN_LON NEUMANN_CLASS NEUMANN_WIND NEUMANN_PRES MLC_LAT MLC_LON MLC_CLASS MLC_WIND MLC_PRES USA_GUST BOM_GUST BOM_GUST_PER REUNION_GUST REUNION_GUST_PER USA_SEAHGT USA_SEARAD_NE USA_SEARAD_SE USA_SEARAD_SW USA_SEARAD_NW STORM_SPEED STORM_DIR
1913060S16066 1913 21 SI MM NOT_NAMED 1913-03-01 06:00:00 NR -15.9000 66.1000 reunion main 1004 984 _____O________ -1 -15.9000 66.1000 99 9.90000 4 202
1913060S16066 1913 21 SI MM NOT_NAMED 1913-03-01 09:00:00 NR -16.0595 66.0243 main 984 979 _____P________ -1 -16.0595 66.0243 99 4 205
1913060S16066 1913 21 SI MM NOT_NAMED 1913-03-01 12:00:00 NR -16.2204 65.9487 main 969 959 _____P________ -1 -16.2204 65.9487 99 4 203
1913060S16066 1913 21 SI MM NOT_NAMED 1913-03-01 15:00:00 NR -16.3843 65.8731 main 959 944 _____P________ -1 -16.3843 65.8731 99 4 204
1913060S16066 1913 21 SI MM NOT_NAMED 1913-03-01 18:00:00 NR -16.5527 65.7977 main 939 925 _____P________ -1 -16.5527 65.7977 99 4 203
1913060S16066 1913 21 SI MM NOT_NAMED 1913-03-01 21:00:00 NR -16.7269 65.7226 main 925 915 _____P________ -1 -16.7269 65.7226 99 4 202
1913060S16066 1913 21 SI MM NOT_NAMED 1913-03-02 00:00:00 NR -16.9085 65.6479 main 905 896 _____P________ -1 -16.9085 65.6479 99 4 201
1913060S16066 1913 21 SI MM NOT_NAMED 1913-03-02 03:00:00 NR -17.0991 65.5737 main 896 877 _____P________ -1 -17.0991 65.5737 99 4 200
1913060S16066 1913 21 SI MM NOT_NAMED 1913-03-02 06:00:00 NR -17.3000 65.5000 reunion main 877 858 _____O________ -1 -17.3000 65.5000 99 9.90000 4 199
1913060S16066 1913 21 SI MM NOT_NAMED 1913-03-02 09:00:00 NR -17.5119 65.4269 main 858 850 _____P________ -1 -17.5119 65.4269 99 5 198
1913060S16066 1913 21 SI MM NOT_NAMED 1913-03-02 12:00:00 NR -17.7318 65.3541 main 850 832 _____P________ -1 -17.7318 65.3541 99 5 197
1913060S16066 1913 21 SI MM NOT_NAMED 1913-03-02 15:00:00 NR -17.9558 65.2811 main 828 811 _____P________ -1 -17.9558 65.2811 99 5 197
1913060S16066 1913 21 SI MM NOT_NAMED 1913-03-02 18:00:00 NR -18.1799 65.2075 main 811 794 _____P________ -1 -18.1799 65.2075 99 5 198
1913060S16066 1913 21 SI MM NOT_NAMED 1913-03-02 21:00:00 NR -18.4003 65.1330 main 794 788 _____P________ -1 -18.4003 65.1330 99 5 198
1913060S16066 1913 21 SI MM NOT_NAMED 1913-03-03 00:00:00 NR -18.6131 65.0572 main 788 772 _____P________ -1 -18.6131 65.0572 99 4 199
1913060S16066 1913 21 SI MM NOT_NAMED 1913-03-03 03:00:00 NR -18.8143 64.9797 main 772 757 _____P________ -1 -18.8143 64.9797 99 4 201
1913060S16066 1913 21 SI MM NOT_NAMED 1913-03-03 06:00:00 NR -19.0000 64.9000 reunion main 757 753 _____O________ -1 -19.0000 64.9000 99 9.90000 4 199
1913060S16066 1913 21 SI MM NOT_NAMED 1913-03-03 09:00:00 NR -19.1609 64.8530 main 753 740 _____P________ -1 -19.1609 64.8530 99 3 195
1913060S16066 1913 21 SI MM NOT_NAMED 1913-03-03 12:00:00 NR -19.3075 64.8083 main 740 738 _____P________ -1 -19.3075 64.8083 99 3 197
1913060S16066 1913 21 SI MM NOT_NAMED 1913-03-03 15:00:00 NR -19.4418 64.7592 main 738 725 _____P________ -1 -19.4418 64.7592 99 3 203
1913060S16066 1913 21 SI MM NOT_NAMED 1913-03-03 18:00:00 NR -19.5658 64.6984 main 725 713 _____P________ -1 -19.5658 64.6984 99 3 209
1913060S16066 1913 21 SI MM NOT_NAMED 1913-03-03 21:00:00 NR -19.6817 64.6192 main 713 701 _____P________ -1 -19.6817 64.6192 99 3 217
1913060S16066 1913 21 SI MM NOT_NAMED 1913-03-04 00:00:00 NR -19.7913 64.5144 main 701 690 _____P________ -1 -19.7913 64.5144 99 3 227
1913060S16066 1913 21 SI MM NOT_NAMED 1913-03-04 03:00:00 NR -19.8968 64.3771 main 690 668 _____P________ -1 -19.8968 64.3771 99 4 235
1913060S16066 1913 21 SI MM NOT_NAMED 1913-03-04 06:00:00 NR -20.0000 64.2000 reunion main 668 647 _____O________ -1 -20.0000 64.2000 99 9.90000 4 239
1913060S16066 1913 21 SI MM NOT_NAMED 1913-03-04 09:00:00 NR -20.1189 63.9789 main 647 615 _____P________ -1 -20.1189 63.9789 99 5 242
1913060S16066 1913 21 SI MM NOT_NAMED 1913-03-04 12:00:00 NR -20.2348 63.7195 main 615 583 _____P________ -1 -20.2348 63.7195 99 6 246
1913060S16066 1913 21 SI MM NOT_NAMED 1913-03-04 15:00:00 NR -20.3463 63.4262 main 583 552 _____P________ -1 -20.3463 63.4262 99 6 249
1913060S16066 1913 21 SI MM NOT_NAMED 1913-03-04 18:00:00 NR -20.4523 63.1031 main 552 521 _____P________ -1 -20.4524 63.1031 99 7 252
1913060S16066 1913 21 SI MM NOT_NAMED 1913-03-04 21:00:00 NR -20.5519 62.7546 main 521 480 _____P________ -1 -20.5519 62.7546 99 7 254
1913060S16066 1913 21 SI MM NOT_NAMED 1913-03-05 00:00:00 NR -20.6437 62.3851 main 480 439 _____P________ -1 -20.6437 62.3851 99 7 256
1913060S16066 1913 21 SI MM NOT_NAMED 1913-03-05 03:00:00 NR -20.7267 61.9987 main 439 399 _____P________ -1 -20.7267 61.9987 99 8 258
1913060S16066 1913 21 SI MM NOT_NAMED 1913-03-05 06:00:00 NR -20.8000 61.6000 reunion main 399 360 _____O________ -1 -20.8000 61.6000 99 9.90000 8 260
1913060S16066 1913 21 SI MM NOT_NAMED 1913-03-05 09:00:00 NR -20.8617 61.1832 main 360 319 _____P________ -1 -20.8617 61.1832 99 8 262
1913060S16066 1913 21 SI MM NOT_NAMED 1913-03-05 12:00:00 NR -20.9128 60.7460 main 309 271 _____P________ -1 -20.9128 60.7460 99 8 264
1913060S16066 1913 21 SI MM NOT_NAMED 1913-03-05 15:00:00 NR -20.9551 60.2976 main 271 232 _____P________ -1 -20.9551 60.2976 99 8 265
1913060S16066 1913 21 SI MM NOT_NAMED 1913-03-05 18:00:00 NR -20.9903 59.8467 main 222 183 _____P________ -1 -20.9903 59.8467 99 8 266
1913060S16066 1913 21 SI MM NOT_NAMED 1913-03-05 21:00:00 NR -21.0204 59.4026 main 183 146 _____P________ -1 -21.0204 59.4026 99 8 266
1913060S16066 1913 21 SI MM NOT_NAMED 1913-03-06 00:00:00 NR -21.0473 58.9741 main 146 115 _____P________ -1 -21.0473 58.9741 99 8 266
1913060S16066 1913 21 SI MM NOT_NAMED 1913-03-06 03:00:00 NR -21.0731 58.5703 main 115 84 _____P________ -1 -21.0731 58.5703 99 7 266
1913060S16066 1913 21 SI MM NOT_NAMED 1913-03-06 06:00:00 NR -21.1000 58.2000 reunion main 84 70 _____O________ -1 -21.1000 58.2000 99 9.90000 6 264
1913060S16066 1913 21 SI MM NOT_NAMED 1913-03-06 09:00:00 NR -21.1340 57.8983 main 70 67 _____P________ -1 -21.1340 57.8983 99 5 263
1913060S16066 1913 21 SI MM NOT_NAMED 1913-03-06 12:00:00 NR -21.1683 57.6290 main 78 78 _____P________ -1 -21.1683 57.6290 99 5 262
1913060S16066 1913 21 SI MM NOT_NAMED 1913-03-06 15:00:00 NR -21.2032 57.3850 main 78 78 _____P________ -1 -21.2032 57.3850 99 4 261
1913060S16066 1913 21 SI MM NOT_NAMED 1913-03-06 18:00:00 NR -21.2392 57.1595 main 78 78 _____P________ -1 -21.2392 57.1595 99 4 260
1913060S16066 1913 21 SI MM NOT_NAMED 1913-03-06 21:00:00 NR -21.2765 56.9452 main 98 93 _____P________ -1 -21.2765 56.9452 99 4 259
1913060S16066 1913 21 SI MM NOT_NAMED 1913-03-07 00:00:00 NR -21.3156 56.7352 main 93 73 _____P________ -1 -21.3156 56.7352 99 4 258
1913060S16066 1913 21 SI MM NOT_NAMED 1913-03-07 03:00:00 NR -21.3567 56.5225 main 73 52 _____P________ -1 -21.3567 56.5225 99 4 258
1913060S16066 1913 21 SI MM NOT_NAMED 1913-03-07 06:00:00 NR -21.4000 56.3000 reunion main 52 33 _____O________ -1 -21.4000 56.3000 99 9.90000 5 260
1913060S16066 1913 21 SI MM NOT_NAMED 1913-03-07 09:00:00 NR -21.4375 56.0425 main 23 22 _____P________ -1 -21.4375 56.0425 99 5 261
1913060S16066 1913 21 SI MM NOT_NAMED 1913-03-07 12:00:00 NR -21.4762 55.7791 main 22 11 _____P________ -1 -21.4762 55.7791 99 5 261
1913060S16066 1913 21 SI MM NOT_NAMED 1913-03-07 15:00:00 NR -21.5173 55.5103 main 15 15 _____P________ -1 -21.5173 55.5103 99 5 260
1913060S16066 1913 21 SI MM NOT_NAMED 1913-03-07 18:00:00 NR -21.5619 55.2366 main 35 35 _____P________ -1 -21.5619 55.2366 99 5 260
1913060S16066 1913 21 SI MM NOT_NAMED 1913-03-07 21:00:00 NR -21.6113 54.9582 main 45 45 _____P________ -1 -21.6113 54.9582 99 5 259
1913060S16066 1913 21 SI MM NOT_NAMED 1913-03-08 00:00:00 NR -21.6667 54.6758 main 76 76 _____P________ -1 -21.6667 54.6758 99 5 257
1913060S16066 1913 21 SI MM NOT_NAMED 1913-03-08 03:00:00 NR -21.7292 54.3896 main 103 103 _____P________ -1 -21.7292 54.3896 99 6 256
1913060S16066 1913 21 SI MM NOT_NAMED 1913-03-08 06:00:00 NR -21.8000 54.1000 reunion main 136 136 _____O________ -1 -21.8000 54.1000 99 9.90000 6 255
1913060S16066 1913 21 SI MM NOT_NAMED 1913-03-08 09:00:00 NR -21.8737 53.8035 main 168 168 _____P________ -1 -21.8737 53.8035 99 6 254
1913060S16066 1913 21 SI MM NOT_NAMED 1913-03-08 12:00:00 NR -21.9549 53.5020 main 201 201 _____P________ -1 -21.9549 53.5020 99 6 253
1913060S16066 1913 21 SI MM NOT_NAMED 1913-03-08 15:00:00 NR -22.0437 53.1976 main 229 229 _____P________ -1 -22.0437 53.1976 99 6 252
1913060S16066 1913 21 SI MM NOT_NAMED 1913-03-08 18:00:00 NR -22.1399 52.8921 main 262 262 _____P________ -1 -22.1399 52.8921 99 6 251
1913060S16066 1913 21 SI MM NOT_NAMED 1913-03-08 21:00:00 NR -22.2437 52.5876 main 295 295 _____P________ -1 -22.2437 52.5876 99 6 249
1913060S16066 1913 21 SI MM NOT_NAMED 1913-03-09 00:00:00 NR -22.3549 52.2861 main 332 332 _____P________ -1 -22.3549 52.2861 99 6 247
1913060S16066 1913 21 SI MM NOT_NAMED 1913-03-09 03:00:00 NR -22.4737 51.9896 main 365 365 _____P________ -1 -22.4737 51.9896 99 6 246
1913060S16066 1913 21 SI MM NOT_NAMED 1913-03-09 06:00:00 NR -22.6000 51.7000 reunion main 371 344 _____O________ -1 -22.6000 51.7000 99 9.90000 6 244
1913060S16066 1913 21 SI MM NOT_NAMED 1913-03-09 09:00:00 NR -22.7391 51.3935 main 344 322 _____P________ -1 -22.7391 51.3935 99 6 243
1913060S16066 1913 21 SI MM NOT_NAMED 1913-03-09 12:00:00 NR -22.8877 51.0895 main 322 298 _____P________ -1 -22.8877 51.0895 99 6 241
1913060S16066 1913 21 SI MM NOT_NAMED 1913-03-09 15:00:00 NR -23.0426 50.7931 main 298 277 _____P________ -1 -23.0426 50.7931 99 6 240
1913060S16066 1913 21 SI MM NOT_NAMED 1913-03-09 18:00:00 NR -23.2005 50.5092 main 277 259 _____P________ -1 -23.2005 50.5092 99 6 238
1913060S16066 1913 21 SI MM NOT_NAMED 1913-03-09 21:00:00 NR -23.3584 50.2428 main 251 234 _____P________ -1 -23.3584 50.2428 99 6 236
1913060S16066 1913 21 SI MM NOT_NAMED 1913-03-10 00:00:00 NR -23.5130 49.9990 main 234 215 _____P________ -1 -23.5130 49.9990 99 5 234
1913060S16066 1913 21 SI MM NOT_NAMED 1913-03-10 03:00:00 NR -23.6612 49.7830 main 216 198 _____P________ -1 -23.6612 49.7830 99 5 232
1913060S16066 1913 21 SI MM NOT_NAMED 1913-03-10 06:00:00 NR -23.8000 49.6000 reunion main 198 188 _____O________ -1 -23.8000 49.6000 99 9.90000 4 233
1913060S16066 1913 21 SI MM NOT_NAMED 1913-03-10 09:00:00 NR -23.8911 49.4527 main 191 176 _____P________ -1 -23.8911 49.4527 99 3 235
1913060S16066 1913 21 SI MM NOT_NAMED 1913-03-10 12:00:00 NR -23.9708 49.3384 main 176 176 _____P________ -1 -23.9708 49.3384 99 2 229
1913060S16066 1913 21 SI MM NOT_NAMED 1913-03-10 15:00:00 NR -24.0460 49.2526 main 176 171 _____P________ -1 -24.0460 49.2526 99 2 222
1913060S16066 1913 21 SI MM NOT_NAMED 1913-03-10 18:00:00 NR -24.1238 49.1910 main 171 171 _____P________ -1 -24.1238 49.1910 99 2 210
1913060S16066 1913 21 SI MM NOT_NAMED 1913-03-10 21:00:00 NR -24.2111 49.1494 main 163 163 _____P________ -1 -24.2111 49.1494 99 2 195
1913060S16066 1913 21 SI MM NOT_NAMED 1913-03-11 00:00:00 NR -24.3150 49.1232 main 165 165 _____P________ -1 -24.3150 49.1232 99 2 189
1913060S16066 1913 21 SI MM NOT_NAMED 1913-03-11 03:00:00 NR -24.4423 49.1082 main 168 168 _____P________ -1 -24.4423 49.1082 99 3 182
1913060S16066 1913 21 SI MM NOT_NAMED 1913-03-11 06:00:00 NR -24.6000 49.1000 reunion main 175 175 _____O________ -1 -24.6000 49.1000 99 9.90000 4 184
1913060S16066 1913 21 SI MM NOT_NAMED 1913-03-11 09:00:00 NR -24.7932 49.0948 main 184 184 _____P________ -1 -24.7932 49.0948 99 4 0
1913060S16066 1913 21 SI MM NOT_NAMED 1913-03-11 12:00:00 NR -25.0191 49.0917 main 190 190 _____P________ -1 -25.0191 49.0917 99 5 0
1913060S16066 1913 21 SI MM NOT_NAMED 1913-03-11 15:00:00 NR -25.2731 49.0903 main 202 202 _____P________ -1 -25.2731 49.0903 99 5 0
1913060S16066 1913 21 SI MM NOT_NAMED 1913-03-11 18:00:00 NR -25.5505 49.0904 main 211 211 _____P________ -1 -25.5505 49.0904 99 6 0
1913060S16066 1913 21 SI MM NOT_NAMED 1913-03-11 21:00:00 NR -25.8466 49.0918 main 219 219 _____P________ -1 -25.8466 49.0918 99 6 178
1913060S16066 1913 21 SI MM NOT_NAMED 1913-03-12 00:00:00 NR -26.1566 49.0940 main 241 241 _____P________ -1 -26.1566 49.0940 99 6 0
1913060S16066 1913 21 SI MM NOT_NAMED 1913-03-12 03:00:00 NR -26.4760 49.0968 main 261 261 _____P________ -1 -26.4760 49.0968 99 6 0
1913060S16066 1913 21 SI MM NOT_NAMED 1913-03-12 06:00:00 NR -26.8000 49.1000 reunion main 282 _____O________ -1 -26.8000 49.1000 99 9.90000 7 0

About IBTrACS Database

This database is a web-friendly format of International Best Track Archive for Climate Stewardship (IBTrACS), a global best track data archive curated by NOAA dating back to 1842.

Updated: 2021-12-06